Time;durP1;ratioP1;P1;durP2;ratioP2;P2;SDS_P1;SDS_P2;PMS_P1;PMS_P2;Temp;Humidity;BMP_temperature;BMP_pressure;BME280_temperature;BME280_humidity;BME280_pressure;Samples;Min_cycle;Max_cycle;Signal;HPM_P1;HPM_P2
2021/10/23 00:02:04;;;;;;;20.50;12.50;;;9.30;99.90;;;;;;4973779;28;20089;-76
2021/10/23 00:04:31;;;;;;;21.00;12.55;;;9.30;99.90;;;;;;4974633;28;20053;-76
2021/10/23 00:06:58;;;;;;;22.73;14.10;;;9.30;99.90;;;;;;4974293;28;20097;-75
2021/10/23 00:09:25;;;;;;;24.40;13.90;;;9.30;99.90;;;;;;4974629;28;20050;-77
2021/10/23 00:11:52;;;;;;;25.33;14.15;;;9.20;99.90;;;;;;4974988;28;20050;-77
2021/10/23 00:14:21;;;;;;;24.25;14.40;;;9.20;99.90;;;;;;4974775;28;20141;-77
2021/10/23 00:16:48;;;;;;;30.60;14.63;;;9.20;99.90;;;;;;4974494;28;20433;-77
2021/10/23 00:19:16;;;;;;;23.27;14.63;;;9.20;99.90;;;;;;4974691;28;20365;-76
2021/10/23 00:21:43;;;;;;;23.98;15.30;;;9.20;99.90;;;;;;4975015;28;20086;-77
2021/10/23 00:24:10;;;;;;;27.40;14.90;;;9.10;99.90;;;;;;4974680;28;20153;-76
2021/10/23 00:26:37;;;;;;;22.42;15.63;;;9.20;99.90;;;;;;4976326;28;20137;-76
2021/10/23 00:29:04;;;;;;;27.80;18.30;;;9.20;99.90;;;;;;4978237;28;20089;-76
2021/10/23 00:31:31;;;;;;;28.52;15.82;;;9.20;99.90;;;;;;4978293;28;20102;-77
2021/10/23 00:34:00;;;;;;;24.67;17.15;;;9.20;99.90;;;;;;4977871;28;20521;-76
2021/10/23 00:36:32;;;;;;;25.23;18.23;;;9.30;99.90;;;;;;4979047;28;20055;-76
2021/10/23 00:39:03;;;;;;;28.67;17.48;;;9.30;99.90;;;;;;4976647;28;20417;-76
2021/10/23 00:41:31;;;;;;;30.27;17.65;;;9.30;99.90;;;;;;4975862;28;20114;-78
2021/10/23 00:43:58;;;;;;;26.17;16.90;;;9.30;99.90;;;;;;4976108;28;20074;-77
2021/10/23 00:46:25;;;;;;;29.17;18.05;;;9.30;99.90;;;;;;4976160;28;20059;-77
2021/10/23 00:48:52;;;;;;;29.08;18.30;;;9.20;99.90;;;;;;4977829;28;20057;-77
2021/10/23 00:51:19;;;;;;;31.05;19.13;;;9.30;99.90;;;;;;4979349;28;20046;-75
2021/10/23 00:53:47;;;;;;;32.40;19.50;;;9.30;99.90;;;;;;4981838;28;20138;-76
2021/10/23 00:56:16;;;;;;;27.90;18.13;;;9.30;99.90;;;;;;4980017;28;20081;-76
2021/10/23 00:58:46;;;;;;;29.58;19.33;;;9.30;99.90;;;;;;4978943;28;20050;-76
2021/10/23 01:01:12;;;;;;;29.40;19.10;;;9.30;99.90;;;;;;4978361;28;20062;-77
2021/10/23 01:03:40;;;;;;;25.95;19.80;;;9.40;99.90;;;;;;4977095;28;20105;-80
2021/10/23 01:06:11;;;;;;;31.13;20.67;;;9.40;99.90;;;;;;4976337;28;20051;-77
2021/10/23 01:08:38;;;;;;;32.88;21.33;;;9.40;99.90;;;;;;4975313;28;20099;-79
2021/10/23 01:11:06;;;;;;;37.38;21.13;;;9.40;99.90;;;;;;4975819;28;20129;-77
2021/10/23 01:13:33;;;;;;;30.65;20.90;;;9.40;99.90;;;;;;4976141;28;20078;-76
2021/10/23 01:16:00;;;;;;;32.22;21.38;;;9.50;99.90;;;;;;4974228;28;20142;-77
2021/10/23 01:18:27;;;;;;;33.20;21.15;;;9.50;99.90;;;;;;4974651;28;20470;-77
2021/10/23 01:20:58;;;;;;;29.48;20.67;;;9.50;99.90;;;;;;4974667;28;20082;-76
2021/10/23 01:23:24;;;;;;;29.90;20.02;;;9.50;99.90;;;;;;4974694;28;20476;-76
2021/10/23 01:25:51;;;;;;;36.58;21.23;;;9.60;99.90;;;;;;4973998;28;20187;-75
2021/10/23 01:28:18;;;;;;;33.58;20.83;;;9.60;99.90;;;;;;4974158;28;20609;-78
2021/10/23 01:30:45;;;;;;;35.90;19.67;;;9.60;99.90;;;;;;4973813;28;20115;-76
2021/10/23 01:33:12;;;;;;;29.83;19.98;;;9.60;99.90;;;;;;4974749;28;20133;-75
2021/10/23 01:35:39;;;;;;;30.80;19.73;;;9.60;99.90;;;;;;4974280;28;20062;-77
2021/10/23 01:38:08;;;;;;;33.08;23.90;;;9.60;99.90;;;;;;4974118;28;20097;-76
2021/10/23 01:40:35;;;;;;;34.95;20.58;;;9.60;99.90;;;;;;4974537;28;20134;-76
2021/10/23 01:43:03;;;;;;;30.23;19.98;;;9.60;99.90;;;;;;4975464;28;20106;-76
2021/10/23 01:45:30;;;;;;;31.25;20.30;;;9.60;99.90;;;;;;4976524;28;20522;-76
2021/10/23 01:47:58;;;;;;;32.10;20.50;;;9.60;99.90;;;;;;4975732;28;20461;-75
2021/10/23 01:50:27;;;;;;;34.65;20.60;;;9.60;99.90;;;;;;4976508;28;20137;-78
2021/10/23 01:52:56;;;;;;;33.83;21.55;;;9.60;99.90;;;;;;4975056;28;20051;-75
2021/10/23 01:55:24;;;;;;;33.85;21.98;;;9.60;99.90;;;;;;4975001;28;20137;-76
2021/10/23 01:57:51;;;;;;;33.70;22.48;;;9.60;99.90;;;;;;4974378;28;20106;-76
2021/10/23 02:00:19;;;;;;;34.95;22.02;;;9.60;99.90;;;;;;4974037;28;20481;-78
2021/10/23 02:02:46;;;;;;;33.13;21.75;;;9.60;99.90;;;;;;4973481;28;20113;-77
2021/10/23 02:05:13;;;;;;;32.35;22.08;;;9.60;99.90;;;;;;4974285;28;20051;-76
2021/10/23 02:07:40;;;;;;;30.90;23.27;;;9.60;99.90;;;;;;4974952;28;20101;-76
2021/10/23 02:10:08;;;;;;;37.70;24.25;;;9.60;99.90;;;;;;4972940;28;20429;-76
2021/10/23 02:12:37;;;;;;;38.65;24.10;;;9.60;99.90;;;;;;4972352;28;20086;-76
2021/10/23 02:15:05;;;;;;;35.90;23.83;;;9.60;99.90;;;;;;4972265;28;20050;-76
2021/10/23 02:17:32;;;;;;;42.53;25.17;;;9.60;99.90;;;;;;4971949;28;20137;-76
2021/10/23 02:19:59;;;;;;;38.10;25.60;;;9.60;99.90;;;;;;4972149;28;20577;-76
2021/10/23 02:22:26;;;;;;;39.10;25.42;;;9.50;99.90;;;;;;4971903;28;20051;-76
2021/10/23 02:24:53;;;;;;;46.38;27.83;;;9.50;99.90;;;;;;4971349;28;20442;-76
2021/10/23 02:27:19;;;;;;;39.85;26.08;;;9.50;99.90;;;;;;4972117;28;20129;-76
2021/10/23 02:29:48;;;;;;;41.08;26.02;;;9.50;99.90;;;;;;4972001;28;20130;-76
2021/10/23 02:32:16;;;;;;;42.63;27.30;;;9.50;99.90;;;;;;4972060;28;20085;-75
2021/10/23 02:34:43;;;;;;;44.80;30.35;;;9.50;99.90;;;;;;4971644;28;20134;-75
2021/10/23 02:37:10;;;;;;;44.08;30.13;;;9.50;99.90;;;;;;4973714;28;20358;-79
2021/10/23 02:39:37;;;;;;;44.83;29.42;;;9.50;99.90;;;;;;4973094;28;20082;-76
2021/10/23 02:42:04;;;;;;;48.33;30.80;;;9.40;99.90;;;;;;4971786;28;20105;-79
2021/10/23 02:44:31;;;;;;;46.63;30.92;;;9.40;99.90;;;;;;4971736;28;20078;-76
2021/10/23 02:46:59;;;;;;;49.35;30.42;;;9.40;99.90;;;;;;4970769;28;20530;-77
2021/10/23 02:49:26;;;;;;;50.70;32.10;;;9.30;99.90;;;;;;4972615;28;20560;-76
2021/10/23 02:51:54;;;;;;;47.95;33.17;;;9.30;99.90;;;;;;4969372;28;20493;-76
2021/10/23 02:54:20;;;;;;;54.80;33.40;;;9.20;99.90;;;;;;4971488;28;20450;-78
2021/10/23 02:56:47;;;;;;;56.95;33.95;;;9.30;99.90;;;;;;4971634;28;20065;-77
2021/10/23 02:59:14;;;;;;;57.58;36.65;;;9.20;99.90;;;;;;4971215;28;20074;-77
2021/10/23 03:01:41;;;;;;;60.30;36.13;;;9.20;99.90;;;;;;4971686;28;20055;-76
2021/10/23 03:04:09;;;;;;;61.92;37.22;;;9.10;99.90;;;;;;4971134;28;20066;-76
2021/10/23 03:06:36;;;;;;;69.63;38.35;;;9.10;99.90;;;;;;4970569;28;20094;-76
2021/10/23 03:09:03;;;;;;;61.10;37.50;;;9.20;99.90;;;;;;4970452;28;20134;-76
2021/10/23 03:11:30;;;;;;;60.75;38.05;;;9.20;99.90;;;;;;4970092;28;20055;-78
2021/10/23 03:13:57;;;;;;;61.40;37.17;;;9.20;99.90;;;;;;4970901;28;20552;-78
2021/10/23 03:16:24;;;;;;;61.75;36.42;;;9.20;99.90;;;;;;4970752;28;20155;-77
2021/10/23 03:18:51;;;;;;;60.67;37.55;;;9.20;99.90;;;;;;4970360;28;20059;-76
2021/10/23 03:21:20;;;;;;;56.30;35.08;;;9.30;99.90;;;;;;4970993;28;20050;-77
2021/10/23 03:23:47;;;;;;;55.75;35.08;;;9.30;99.90;;;;;;4970915;28;20533;-76
2021/10/23 03:26:14;;;;;;;57.30;35.10;;;9.40;99.90;;;;;;4970615;28;20137;-76
2021/10/23 03:28:41;;;;;;;48.70;33.58;;;9.40;99.90;;;;;;4970329;28;20153;-76
2021/10/23 03:31:08;;;;;;;47.03;32.42;;;9.50;99.90;;;;;;4970665;28;20449;-76
2021/10/23 03:33:35;;;;;;;54.70;32.05;;;9.50;99.90;;;;;;4970872;28;20085;-76
2021/10/23 03:36:03;;;;;;;53.47;32.83;;;9.50;99.90;;;;;;4970963;28;20134;-76
2021/10/23 03:38:31;;;;;;;52.55;32.78;;;9.50;99.90;;;;;;4973868;28;20054;-76
2021/10/23 03:40:59;;;;;;;52.65;31.58;;;9.50;99.90;;;;;;4975353;28;20520;-77
2021/10/23 03:43:26;;;;;;;47.88;31.70;;;9.50;99.90;;;;;;4974495;28;20133;-77
2021/10/23 03:45:53;;;;;;;47.28;31.45;;;9.50;99.90;;;;;;4973821;28;20150;-77
2021/10/23 03:48:20;;;;;;;50.95;32.60;;;9.60;99.90;;;;;;4977099;28;20090;-79
2021/10/23 03:50:47;;;;;;;55.00;32.45;;;9.60;99.90;;;;;;4973948;28;20047;-76
2021/10/23 03:53:13;;;;;;;48.78;32.72;;;9.60;99.90;;;;;;4973080;28;20074;-76
2021/10/23 03:55:42;;;;;;;48.05;31.08;;;9.60;99.90;;;;;;4973259;28;20089;-77
2021/10/23 03:58:10;;;;;;;47.08;31.25;;;9.60;99.90;;;;;;4973192;28;20047;-76
2021/10/23 04:00:37;;;;;;;50.78;31.25;;;9.60;99.90;;;;;;4972859;28;20137;-78
2021/10/23 04:03:04;;;;;;;45.95;30.08;;;9.60;99.90;;;;;;4973554;28;20105;-76
2021/10/23 04:05:31;;;;;;;52.15;31.30;;;9.70;99.90;;;;;;4973453;28;20061;-77
2021/10/23 04:07:58;;;;;;;54.05;31.65;;;9.70;99.90;;;;;;4973542;28;20482;-76
2021/10/23 04:10:25;;;;;;;52.85;32.60;;;9.70;99.90;;;;;;4974239;28;20133;-77
2021/10/23 04:12:53;;;;;;;48.55;31.38;;;9.70;99.90;;;;;;4974136;28;20074;-76
2021/10/23 04:15:20;;;;;;;49.95;30.98;;;9.70;99.90;;;;;;4973736;28;20141;-76
2021/10/23 04:17:47;;;;;;;48.53;31.92;;;9.70;99.90;;;;;;4974105;28;20046;-76
2021/10/23 04:20:14;;;;;;;46.92;31.63;;;9.70;99.90;;;;;;4973676;28;20054;-77
2021/10/23 04:22:41;;;;;;;51.92;31.63;;;9.60;99.90;;;;;;4974042;28;20138;-76
2021/10/23 04:25:08;;;;;;;50.33;31.08;;;9.70;99.90;;;;;;4973981;28;20567;-79
2021/10/23 04:27:35;;;;;;;47.38;31.30;;;9.70;99.90;;;;;;4974720;28;20050;-76
2021/10/23 04:30:04;;;;;;;50.25;31.70;;;9.70;99.90;;;;;;4974637;28;20129;-77
2021/10/23 04:32:31;;;;;;;44.92;31.13;;;9.70;99.90;;;;;;4973572;28;20150;-76
2021/10/23 04:34:58;;;;;;;42.60;29.00;;;9.70;99.90;;;;;;4973096;28;20051;-76
2021/10/23 04:37:25;;;;;;;42.33;29.00;;;9.80;99.90;;;;;;4973423;28;20055;-76
2021/10/23 04:39:52;;;;;;;47.55;29.55;;;9.80;99.90;;;;;;4973150;28;20090;-79
2021/10/23 04:42:19;;;;;;;46.85;29.95;;;9.80;99.90;;;;;;4973402;28;20051;-76
2021/10/23 04:44:46;;;;;;;42.00;28.73;;;9.90;99.90;;;;;;4973503;28;20054;-75
2021/10/23 04:47:14;;;;;;;43.83;28.17;;;9.90;99.90;;;;;;4972755;28;20134;-78
2021/10/23 04:49:41;;;;;;;43.13;28.23;;;9.90;99.90;;;;;;4973295;28;20393;-78
2021/10/23 04:52:08;;;;;;;42.47;29.05;;;9.80;99.90;;;;;;4973415;28;20209;-76
2021/10/23 04:55:19;;;;;;;45.30;28.13;;;9.80;99.90;;;;;;5030118;23;20052;-78
2021/10/23 04:58:05;;;;;;;41.63;26.38;;;9.70;99.90;;;;;;5011683;28;20081;-77
2021/10/23 05:00:49;;;;;;;;;;;;;;;;;;;;;
2021/10/23 05:03:25;;;;;;;43.78;29.23;;;9.60;99.90;;;;;;5011241;28;20084;-78
2021/10/23 05:06:03;;;;;;;52.67;30.35;;;9.50;99.90;;;;;;4995943;28;20055;-78
2021/10/23 05:08:30;;;;;;;49.50;32.40;;;9.40;99.90;;;;;;4992042;28;20110;-78
2021/10/23 05:10:57;;;;;;;56.05;31.45;;;9.40;99.90;;;;;;4988636;28;20540;-78
2021/10/23 05:13:23;;;;;;;48.63;31.05;;;9.30;99.90;;;;;;4979849;28;20081;-78
2021/10/23 05:15:50;;;;;;;58.85;33.10;;;9.20;99.90;;;;;;4980042;28;20046;-79
2021/10/23 05:18:19;;;;;;;53.97;32.60;;;9.20;99.90;;;;;;4979718;28;20054;-78
2021/10/23 05:20:46;;;;;;;59.13;32.05;;;9.10;99.90;;;;;;4977987;28;20086;-79
2021/10/23 05:23:12;;;;;;;51.70;31.73;;;9.10;99.90;;;;;;4978600;28;20129;-78
2021/10/23 05:25:39;;;;;;;53.30;31.48;;;9.10;99.90;;;;;;4977731;28;20146;-79
2021/10/23 05:28:06;;;;;;;54.53;33.80;;;9.10;99.90;;;;;;4978008;28;20061;-79
2021/10/23 05:30:33;;;;;;;52.28;32.70;;;9.00;99.90;;;;;;4977251;28;20133;-79
2021/10/23 05:33:00;;;;;;;61.33;34.45;;;9.00;99.90;;;;;;4977948;28;20510;-80
2021/10/23 05:35:28;;;;;;;63.13;34.08;;;9.00;99.90;;;;;;4976387;28;20090;-80
2021/10/23 05:37:55;;;;;;;61.38;33.55;;;9.00;99.90;;;;;;4976792;28;20477;-78
2021/10/23 05:40:22;;;;;;;57.42;32.65;;;9.00;99.90;;;;;;4976354;28;20084;-80
2021/10/23 05:42:49;;;;;;;67.70;36.28;;;8.90;99.90;;;;;;4976729;28;20472;-78
2021/10/23 05:45:16;;;;;;;60.38;36.08;;;8.90;99.90;;;;;;4976694;28;20058;-78
2021/10/23 05:47:43;;;;;;;66.68;37.33;;;8.90;99.90;;;;;;4977327;28;20062;-78
2021/10/23 05:50:12;;;;;;;62.70;35.92;;;8.80;99.90;;;;;;4977174;28;20469;-77
2021/10/23 05:52:41;;;;;;;66.13;36.95;;;8.80;99.90;;;;;;4976135;28;20074;-77
2021/10/23 05:55:09;;;;;;;64.65;36.65;;;8.70;99.90;;;;;;4976326;28;20137;-78
2021/10/23 05:57:35;;;;;;;70.47;37.35;;;8.80;99.90;;;;;;4975899;28;20528;-79
2021/10/23 06:00:06;;;;;;;69.88;39.22;;;8.70;99.90;;;;;;4975180;28;20137;-78
2021/10/23 06:02:32;;;;;;;73.47;39.58;;;8.70;99.90;;;;;;4976551;28;20063;-79
2021/10/23 06:05:01;;;;;;;76.90;38.80;;;8.70;99.90;;;;;;4976348;28;20051;-78
2021/10/23 06:07:30;;;;;;;80.32;39.13;;;8.70;99.90;;;;;;4976769;28;20051;-79
2021/10/23 06:10:00;;;;;;;79.32;39.72;;;8.70;99.90;;;;;;4976690;28;20141;-79
2021/10/23 06:12:27;;;;;;;76.82;39.35;;;8.70;99.90;;;;;;4977184;28;20047;-78
2021/10/23 06:14:55;;;;;;;74.20;37.85;;;8.70;99.90;;;;;;4975952;28;20073;-78
2021/10/23 06:17:22;;;;;;;70.55;39.17;;;8.70;99.90;;;;;;4977458;28;20138;-78
2021/10/23 06:19:49;;;;;;;64.35;34.85;;;8.80;99.90;;;;;;4976816;28;20504;-79
2021/10/23 06:22:18;;;;;;;63.88;35.35;;;8.80;99.90;;;;;;4976627;28;20054;-79
2021/10/23 06:24:45;;;;;;;66.15;34.42;;;8.90;99.90;;;;;;4976799;28;20101;-78
2021/10/23 06:27:13;;;;;;;63.97;34.22;;;8.90;99.90;;;;;;4979187;28;20055;-79
2021/10/23 06:29:40;;;;;;;59.97;33.78;;;8.90;99.90;;;;;;4983275;28;20055;-78
2021/10/23 06:32:07;;;;;;;60.17;32.28;;;9.00;99.90;;;;;;4982479;28;20106;-78
2021/10/23 06:34:36;;;;;;;54.15;30.98;;;9.10;99.90;;;;;;4985067;28;20079;-78
2021/10/23 06:37:03;;;;;;;51.28;29.35;;;9.30;99.90;;;;;;4986656;28;20059;-78
2021/10/23 06:39:30;;;;;;;47.83;28.20;;;9.40;99.90;;;;;;4985522;28;20074;-79
2021/10/23 06:41:57;;;;;;;41.97;27.95;;;9.50;99.90;;;;;;4975465;28;20129;-78
2021/10/23 06:44:25;;;;;;;43.67;26.42;;;9.60;99.90;;;;;;4974623;28;20112;-78
2021/10/23 06:46:52;;;;;;;39.58;26.85;;;9.60;99.90;;;;;;4974474;28;20157;-78
2021/10/23 06:49:19;;;;;;;43.72;26.20;;;9.70;99.90;;;;;;4977967;28;20107;-79
2021/10/23 06:51:46;;;;;;;41.53;26.30;;;9.70;99.90;;;;;;4978406;28;20049;-78
2021/10/23 06:54:13;;;;;;;39.97;24.92;;;9.80;99.90;;;;;;4978767;28;20167;-80
2021/10/23 06:56:40;;;;;;;35.30;23.92;;;9.70;99.90;;;;;;4978882;28;20531;-79
2021/10/23 06:59:06;;;;;;;38.38;24.70;;;9.80;99.90;;;;;;4979541;28;20062;-80
2021/10/23 07:01:35;;;;;;;34.22;22.52;;;9.80;99.90;;;;;;4979844;28;20081;-79
2021/10/23 07:04:01;;;;;;;33.50;23.08;;;9.80;99.90;;;;;;4979707;28;20153;-80
2021/10/23 07:06:28;;;;;;;35.13;22.42;;;9.90;99.90;;;;;;4979924;28;20074;-79
2021/10/23 07:08:55;;;;;;;33.13;20.52;;;9.90;99.90;;;;;;4981234;28;20131;-80
2021/10/23 07:11:22;;;;;;;37.08;21.77;;;9.90;99.90;;;;;;4982159;28;20263;-78
2021/10/23 07:13:49;;;;;;;31.67;20.40;;;10.00;99.90;;;;;;4985978;28;20227;-79
2021/10/23 07:16:16;;;;;;;31.38;20.55;;;9.90;99.90;;;;;;4983839;28;20051;-80
2021/10/23 07:18:44;;;;;;;31.88;20.00;;;9.90;99.90;;;;;;4981867;28;20532;-80
2021/10/23 07:21:11;;;;;;;30.50;20.15;;;10.00;99.90;;;;;;4982791;28;20086;-79
2021/10/23 07:23:38;;;;;;;35.05;20.88;;;10.10;99.90;;;;;;4981574;28;20054;-82
2021/10/23 07:26:04;;;;;;;29.95;20.90;;;10.10;99.90;;;;;;4981479;28;20114;-83
2021/10/23 07:28:31;;;;;;;40.30;21.88;;;10.20;99.90;;;;;;4981623;28;20086;-81
2021/10/23 07:30:59;;;;;;;35.28;21.27;;;10.20;99.90;;;;;;4981554;28;20577;-82
2021/10/23 07:33:26;;;;;;;32.28;19.50;;;10.30;99.90;;;;;;4981369;28;20105;-80
2021/10/23 07:35:54;;;;;;;30.00;19.98;;;10.50;99.90;;;;;;4981851;28;20572;-81
2021/10/23 07:38:21;;;;;;;32.60;19.33;;;10.50;99.90;;;;;;4981066;28;20560;-81
2021/10/23 07:40:48;;;;;;;33.95;19.42;;;10.60;99.90;;;;;;4981605;28;20087;-81
2021/10/23 07:43:15;;;;;;;32.22;19.70;;;10.70;99.90;;;;;;4982231;28;20172;-80
2021/10/23 07:45:43;;;;;;;27.52;17.73;;;10.70;99.90;;;;;;4985335;28;20059;-80
2021/10/23 07:48:10;;;;;;;29.02;19.10;;;10.70;99.90;;;;;;4986244;28;20110;-80
2021/10/23 07:50:37;;;;;;;28.05;18.25;;;10.70;99.90;;;;;;4986478;28;20078;-80
2021/10/23 07:53:05;;;;;;;26.35;17.20;;;10.80;99.90;;;;;;4984435;28;20054;-79
2021/10/23 07:55:33;;;;;;;29.92;17.10;;;10.90;99.90;;;;;;4984562;28;20082;-79
2021/10/23 07:58:00;;;;;;;25.92;18.00;;;10.90;99.90;;;;;;4988875;28;20476;-79
2021/10/23 08:00:28;;;;;;;27.15;17.45;;;10.90;99.90;;;;;;4992648;28;20104;-81
2021/10/23 08:02:55;;;;;;;26.48;17.95;;;11.00;99.90;;;;;;4989810;28;20082;-80
2021/10/23 08:05:23;;;;;;;35.15;22.35;;;11.10;99.90;;;;;;4987450;28;20082;-80
2021/10/23 08:07:52;;;;;;;24.85;17.23;;;11.20;99.90;;;;;;4987256;28;20082;-79
2021/10/23 08:10:23;;;;;;;27.77;17.30;;;11.30;99.90;;;;;;4986501;28;20054;-78
2021/10/23 08:12:50;;;;;;;28.20;16.77;;;11.40;99.90;;;;;;4991173;28;20042;-79
2021/10/23 08:15:17;;;;;;;25.15;16.63;;;11.40;99.90;;;;;;4990733;28;20090;-79
2021/10/23 08:17:45;;;;;;;24.55;16.30;;;11.50;99.90;;;;;;4991149;28;20054;-80
2021/10/23 08:20:12;;;;;;;24.67;16.30;;;11.60;99.90;;;;;;4992210;28;20077;-79
2021/10/23 08:22:40;;;;;;;25.23;16.17;;;11.70;99.90;;;;;;4992349;28;20090;-79
2021/10/23 08:25:09;;;;;;;25.77;14.85;;;11.70;99.90;;;;;;4990713;28;20504;-80
2021/10/23 08:27:40;;;;;;;25.95;15.60;;;11.70;99.90;;;;;;4988462;28;20118;-79
2021/10/23 08:30:09;;;;;;;26.35;15.80;;;11.80;99.90;;;;;;4983830;28;20194;-79
2021/10/23 08:32:37;;;;;;;23.05;15.70;;;11.80;99.90;;;;;;4982173;28;20063;-80
2021/10/23 08:35:07;;;;;;;25.63;13.43;;;11.80;99.90;;;;;;4980671;28;20047;-80
2021/10/23 08:37:34;;;;;;;21.85;13.77;;;11.90;99.90;;;;;;4982756;28;20146;-81
2021/10/23 08:40:01;;;;;;;20.65;13.60;;;12.00;99.90;;;;;;4978898;28;20082;-80
2021/10/23 08:42:29;;;;;;;19.40;13.45;;;12.00;99.90;;;;;;4982164;28;20114;-80
2021/10/23 08:45:02;;;;;;;25.33;13.70;;;12.20;99.90;;;;;;4980466;28;20106;-80
2021/10/23 08:47:29;;;;;;;;;;;12.20;99.90;;;;;;4982390;28;20638;-80
2021/10/23 08:49:58;;;;;;;18.63;12.88;;;12.40;99.90;;;;;;4988545;28;19926;-78
2021/10/23 08:52:25;;;;;;;21.65;13.88;;;12.40;99.90;;;;;;4981778;28;20121;-81
2021/10/23 08:54:55;;;;;;;28.35;14.63;;;12.40;99.90;;;;;;4980646;28;20081;-80
2021/10/23 08:57:25;;;;;;;19.90;14.23;;;12.30;99.90;;;;;;4981147;28;20110;-81
2021/10/23 08:59:52;;;;;;;20.33;14.50;;;12.40;99.90;;;;;;4982592;28;20059;-79
2021/10/23 09:02:21;;;;;;;20.92;13.45;;;12.50;99.90;;;;;;4985797;28;20141;-80
2021/10/23 09:04:51;;;;;;;25.35;13.27;;;12.50;99.90;;;;;;4983999;28;20081;-77
2021/10/23 09:07:21;;;;;;;20.02;12.35;;;12.60;99.90;;;;;;4981381;28;20141;-77
2021/10/23 09:09:50;;;;;;;17.20;13.32;;;12.60;99.90;;;;;;4980115;28;20051;-79
2021/10/23 09:12:22;;;;;;;18.02;13.20;;;12.80;99.90;;;;;;4980246;28;20146;-79
2021/10/23 09:14:58;;;;;;;19.23;12.75;;;12.90;99.90;;;;;;4977143;28;20077;-78
2021/10/23 09:17:26;;;;;;;21.13;13.88;;;12.80;99.90;;;;;;4975741;28;20130;-79
2021/10/23 09:19:54;;;;;;;22.80;13.70;;;12.80;99.90;;;;;;4978699;28;20118;-80
2021/10/23 09:22:27;;;;;;;23.08;13.48;;;12.80;99.90;;;;;;4978088;28;20131;-79
2021/10/23 09:25:11;;;;;;;;;;;12.70;99.90;;;;;;4977909;28;20057;-80
2021/10/23 09:27:47;;;;;;;21.70;13.13;;;12.80;99.90;;;;;;4977163;28;19977;-79
2021/10/23 09:30:15;;;;;;;18.50;13.43;;;12.80;99.90;;;;;;4978494;28;20086;-80
2021/10/23 09:32:49;;;;;;;26.83;13.60;;;13.00;99.90;;;;;;4979289;28;20126;-79
2021/10/23 09:35:18;;;;;;;19.13;12.80;;;13.00;99.90;;;;;;4978056;28;20576;-80
2021/10/23 09:37:46;;;;;;;22.75;13.15;;;13.00;99.90;;;;;;4973870;28;20051;-81
2021/10/23 09:40:19;;;;;;;20.33;12.40;;;13.20;99.90;;;;;;4977223;28;20056;-80
2021/10/23 09:42:47;;;;;;;21.42;13.10;;;13.20;99.90;;;;;;4974637;28;20130;-79
2021/10/23 09:45:14;;;;;;;18.80;12.38;;;13.40;99.90;;;;;;4976084;28;20146;-79
2021/10/23 09:47:43;;;;;;;21.77;13.60;;;13.40;99.90;;;;;;4976373;28;20110;-78
2021/10/23 09:50:15;;;;;;;17.50;13.90;;;13.40;99.90;;;;;;4977004;28;20066;-80
2021/10/23 09:53:04;;;;;;;18.30;12.88;;;13.40;99.90;;;;;;4976116;28;20110;-80
2021/10/23 09:55:50;;;;;;;25.17;12.63;;;13.40;99.90;;;;;;4973850;28;20485;-79
2021/10/23 09:58:18;;;;;;;22.77;12.82;;;13.40;99.90;;;;;;4975434;28;20129;-79
2021/10/23 10:00:47;;;;;;;20.27;12.43;;;13.40;99.90;;;;;;4975486;28;20058;-78
2021/10/23 10:03:18;;;;;;;17.20;11.75;;;13.60;99.90;;;;;;4976267;28;20326;-76
2021/10/23 10:05:45;;;;;;;22.13;12.32;;;13.60;99.90;;;;;;4975427;28;20043;-78
2021/10/23 10:08:13;;;;;;;17.48;12.63;;;13.60;99.90;;;;;;4975382;28;20150;-79
2021/10/23 10:10:42;;;;;;;16.88;11.40;;;13.70;99.90;;;;;;4974189;28;20154;-80
2021/10/23 10:13:10;;;;;;;18.25;11.88;;;13.80;99.90;;;;;;4976230;28;20138;-79
2021/10/23 10:15:40;;;;;;;16.02;12.38;;;13.90;99.90;;;;;;4972994;28;20082;-79
2021/10/23 10:18:08;;;;;;;20.83;11.63;;;14.00;99.90;;;;;;4975713;28;20068;-79
2021/10/23 10:20:38;;;;;;;19.33;11.95;;;14.10;99.90;;;;;;4976141;28;20139;-79
2021/10/23 10:23:10;;;;;;;17.80;11.40;;;14.10;99.90;;;;;;4975897;28;20114;-79
2021/10/23 10:25:37;;;;;;;13.52;10.10;;;14.10;99.90;;;;;;4975817;28;20086;-81
2021/10/23 10:28:16;;;;;;;17.48;10.77;;;14.20;99.90;;;;;;4977192;28;20165;-80
2021/10/23 10:30:47;;;;;;;16.20;9.93;;;14.20;99.90;;;;;;4976676;28;20058;-82
2021/10/23 10:33:17;;;;;;;19.52;9.82;;;14.10;99.90;;;;;;4976412;28;20500;-80
2021/10/23 10:36:15;;;;;;;14.00;8.98;;;14.10;99.90;;;;;;4976439;28;20065;-79
2021/10/23 10:44:19;;;;;;;16.55;9.35;;;13.80;99.90;;;;;;4975815;28;20050;-80
2021/10/23 10:47:07;;;;;;;14.68;8.10;;;13.80;99.90;;;;;;4980335;28;20061;-80
2021/10/23 10:49:50;;;;;;;16.80;9.20;;;13.70;99.90;;;;;;4981770;28;20198;-80
2021/10/23 10:52:54;;;;;;;15.57;8.95;;;13.70;99.90;;;;;;4981211;28;20383;-80
2021/10/23 10:55:25;;;;;;;13.40;7.88;;;13.70;99.90;;;;;;4995756;23;20049;-80
2021/10/23 10:57:59;;;;;;;14.23;8.25;;;13.70;99.90;;;;;;4991512;28;20086;-80
2021/10/23 11:01:11;;;;;;;15.82;8.27;;;13.70;99.90;;;;;;4990984;28;20078;-81
2021/10/23 11:03:44;;;;;;;12.80;6.70;;;13.60;99.90;;;;;;4978781;28;20501;-80
2021/10/23 11:06:53;;;;;;;11.75;7.13;;;13.70;99.90;;;;;;4983330;28;20085;-79
2021/10/23 11:09:54;;;;;;;12.32;7.68;;;13.70;99.90;;;;;;4978121;28;20069;-78
2021/10/23 11:12:29;;;;;;;13.48;7.78;;;13.70;99.90;;;;;;4981668;28;20134;-78
2021/10/23 11:14:57;;;;;;;12.48;7.72;;;13.70;99.90;;;;;;4978075;28;20483;-78
2021/10/23 11:17:24;;;;;;;14.15;7.97;;;13.70;99.90;;;;;;4977457;28;20054;-78
2021/10/23 11:20:00;;;;;;;14.73;8.10;;;13.70;99.90;;;;;;4977572;28;20121;-79
2021/10/23 11:22:30;;;;;;;15.07;8.20;;;13.60;99.90;;;;;;4977617;28;20046;-78
2021/10/23 11:25:03;;;;;;;12.20;7.47;;;13.70;99.90;;;;;;4977320;28;20061;-78
2021/10/23 11:27:40;;;;;;;13.52;7.38;;;13.80;99.90;;;;;;4977753;28;20145;-78
2021/10/23 11:30:11;;;;;;;13.10;7.55;;;13.80;99.90;;;;;;4977874;28;20505;-79
2021/10/23 11:32:40;;;;;;;14.30;8.30;;;13.80;99.90;;;;;;4979622;28;20055;-79
2021/10/23 11:35:07;;;;;;;16.75;7.55;;;13.80;99.90;;;;;;4979540;28;20061;-79
2021/10/23 11:37:34;;;;;;;16.98;7.75;;;13.80;99.90;;;;;;4979337;28;20464;-78
2021/10/23 11:40:06;;;;;;;19.92;8.05;;;13.90;99.90;;;;;;4967744;28;20049;-79
2021/10/23 11:42:35;;;;;;;14.35;8.43;;;13.90;99.90;;;;;;4967653;28;20046;-79
2021/10/23 11:48:18;;;;;;;13.65;8.00;;;13.80;99.90;;;;;;1127646;26;20043;-79
2021/10/23 11:51:22;;;;;;;;;;;;;;;;;;;;;
2021/10/23 11:54:00;;;;;;;13.13;7.72;;;13.80;99.90;;;;;;4964020;28;20063;-79
2021/10/23 11:56:58;;;;;;;14.05;8.15;;;13.80;99.90;;;;;;4980699;28;20481;-79
2021/10/23 11:59:28;;;;;;;13.90;8.43;;;13.80;99.90;;;;;;4983491;28;20062;-79
2021/10/23 12:02:18;;;;;;;13.35;7.82;;;13.80;99.90;;;;;;4984028;28;20062;-79
2021/10/23 12:05:07;;;;;;;11.40;8.10;;;13.90;99.90;;;;;;4983833;28;20055;-79
2021/10/23 12:07:44;;;;;;;14.50;9.00;;;13.80;99.90;;;;;;4982458;28;20070;-79
2021/10/23 12:10:14;;;;;;;12.73;8.27;;;13.80;99.90;;;;;;4984172;28;20105;-81
2021/10/23 12:12:54;;;;;;;13.00;8.40;;;13.70;99.90;;;;;;4983120;28;20097;-80
2021/10/23 12:15:25;;;;;;;17.35;8.15;;;13.60;99.90;;;;;;4980386;28;20043;-78
2021/10/23 12:17:58;;;;;;;17.85;8.80;;;13.70;99.90;;;;;;4971671;28;20089;-81
2021/10/23 12:20:24;;;;;;;12.98;8.63;;;13.70;99.90;;;;;;4965602;28;20053;-80
2021/10/23 12:22:51;;;;;;;12.32;8.93;;;13.60;99.90;;;;;;4973389;28;20102;-81
2021/10/23 12:25:18;;;;;;;13.55;8.43;;;13.70;99.90;;;;;;4980028;28;20130;-80
2021/10/23 12:27:59;;;;;;;13.20;8.43;;;13.60;99.90;;;;;;4982132;28;20118;-80
2021/10/23 12:30:26;;;;;;;14.75;8.80;;;13.60;99.90;;;;;;4982158;28;20093;-80
2021/10/23 12:32:59;;;;;;;12.68;8.48;;;13.50;99.90;;;;;;4980557;28;20093;-79
2021/10/23 12:35:28;;;;;;;14.70;8.52;;;13.60;99.90;;;;;;4977110;28;20131;-79
2021/10/23 12:37:59;;;;;;;14.77;8.80;;;13.60;99.90;;;;;;4979276;28;20055;-80
2021/10/23 12:40:30;;;;;;;19.33;9.20;;;13.50;99.90;;;;;;4985826;28;20071;-80
2021/10/23 12:43:08;;;;;;;13.63;8.07;;;13.60;99.90;;;;;;4989526;28;20051;-79
2021/10/23 12:45:40;;;;;;;14.70;8.45;;;13.60;99.90;;;;;;4980491;28;20069;-78
2021/10/23 12:48:15;;;;;;;11.40;8.20;;;13.60;99.90;;;;;;4979659;28;20129;-79
2021/10/23 12:51:00;;;;;;;11.93;8.00;;;13.60;99.90;;;;;;4970376;28;20050;-79
2021/10/23 12:53:29;;;;;;;15.77;9.13;;;13.60;99.90;;;;;;4985716;28;20421;-78
2021/10/23 12:55:58;;;;;;;14.52;8.27;;;13.50;99.90;;;;;;4989732;28;20066;-80
2021/10/23 12:58:26;;;;;;;14.32;8.00;;;13.50;99.90;;;;;;4991246;28;20061;-80
2021/10/23 13:00:53;;;;;;;14.57;8.70;;;13.50;99.90;;;;;;4986675;28;20293;-80